sensor_id;sensor_type;location;lat;lon;timestamp;pressure;altitude;pressure_sealevel;temperature;humidity
74561;BME280;62979;55.720;37.606;2023-02-01T00:00:01;98443.88;;;1.76;71.56
74561;BME280;62979;55.720;37.606;2023-02-01T00:02:29;98432.72;;;1.76;71.58
74561;BME280;62979;55.720;37.606;2023-02-01T00:04:56;98435.28;;;1.76;71.90
74561;BME280;62979;55.720;37.606;2023-02-01T00:07:23;98438.72;;;1.73;71.56
74561;BME280;62979;55.720;37.606;2023-02-01T00:09:50;98437.91;;;1.71;71.48
74561;BME280;62979;55.720;37.606;2023-02-01T00:12:18;98443.97;;;1.61;71.70
74561;BME280;62979;55.720;37.606;2023-02-01T00:14:46;98433.72;;;1.58;71.70
74561;BME280;62979;55.720;37.606;2023-02-01T00:17:14;98436.28;;;1.59;71.91
74561;BME280;62979;55.720;37.606;2023-02-01T00:19:41;98438.81;;;1.64;72.00
74561;BME280;62979;55.720;37.606;2023-02-01T00:22:07;98436.25;;;1.62;72.05
74561;BME280;62979;55.720;37.606;2023-02-01T00:24:34;98425.97;;;1.59;71.74
74561;BME280;62979;55.720;37.606;2023-02-01T00:27:01;98448.22;;;1.69;71.86
74561;BME280;62979;55.720;37.606;2023-02-01T00:29:29;98442.97;;;1.79;71.67
74561;BME280;62979;55.720;37.606;2023-02-01T00:31:56;98430.97;;;1.75;71.14
74561;BME280;62979;55.720;37.606;2023-02-01T00:34:23;98432.72;;;1.76;71.20
74561;BME280;62979;55.720;37.606;2023-02-01T00:36:50;98433.53;;;1.78;71.48
74561;BME280;62979;55.720;37.606;2023-02-01T00:39:17;98424.94;;;1.79;71.11
74561;BME280;62979;55.720;37.606;2023-02-01T00:41:44;98438.56;;;1.93;70.98
74561;BME280;62979;55.720;37.606;2023-02-01T00:44:11;98428.19;;;1.95;70.63
74561;BME280;62979;55.720;37.606;2023-02-01T00:46:39;98429.88;;;2.00;71.00
74561;BME280;62979;55.720;37.606;2023-02-01T00:49:06;98426.47;;;1.95;70.26
74561;BME280;62979;55.720;37.606;2023-02-01T00:51:34;98423.94;;;1.92;70.47
74561;BME280;62979;55.720;37.606;2023-02-01T00:54:02;98420.44;;;1.99;70.35
74561;BME280;62979;55.720;37.606;2023-02-01T00:56:29;98409.44;;;1.82;70.40
74561;BME280;62979;55.720;37.606;2023-02-01T00:58:57;98425.66;;;1.93;70.61
74561;BME280;62979;55.720;37.606;2023-02-01T01:01:25;98429.00;;;2.01;70.55
74561;BME280;62979;55.720;37.606;2023-02-01T01:03:56;98431.53;;;2.07;70.33
74561;BME280;62979;55.720;37.606;2023-02-01T01:06:26;98428.91;;;2.10;70.16
74561;BME280;62979;55.720;37.606;2023-02-01T01:08:56;98427.19;;;2.12;69.91
74561;BME280;62979;55.720;37.606;2023-02-01T01:11:27;98434.88;;;2.17;69.97
74561;BME280;62979;55.720;37.606;2023-02-01T01:13:57;98431.44;;;2.15;69.86
74561;BME280;62979;55.720;37.606;2023-02-01T01:16:27;98426.19;;;2.21;69.48
74561;BME280;62979;55.720;37.606;2023-02-01T01:18:57;98428.81;;;2.17;69.62
74561;BME280;62979;55.720;37.606;2023-02-01T01:21:25;98447.72;;;2.20;69.26
74561;BME280;62979;55.720;37.606;2023-02-01T01:23:53;98441.72;;;2.18;69.46
74561;BME280;62979;55.720;37.606;2023-02-01T01:26:21;98430.56;;;2.18;69.20
74561;BME280;62979;55.720;37.606;2023-02-01T01:28:50;98437.44;;;2.16;69.04
74561;BME280;62979;55.720;37.606;2023-02-01T01:31:19;98437.44;;;2.16;68.81
74561;BME280;62979;55.720;37.606;2023-02-01T01:33:50;98447.72;;;2.20;69.24
74561;BME280;62979;55.720;37.606;2023-02-01T01:36:21;98440.91;;;2.13;68.83
74561;BME280;62979;55.720;37.606;2023-02-01T01:38:49;98472.75;;;2.09;69.17
74561;BME280;62979;55.720;37.606;2023-02-01T01:41:19;98461.69;;;1.99;69.26
74561;BME280;62979;55.720;37.606;2023-02-01T01:43:54;98448.94;;;1.85;69.26
74561;BME280;62979;55.720;37.606;2023-02-01T01:46:23;98451.53;;;1.84;69.54
74561;BME280;62979;55.720;37.606;2023-02-01T01:48:58;98468.66;;;1.91;69.64
74561;BME280;62979;55.720;37.606;2023-02-01T01:51:33;98454.88;;;1.92;69.45
74561;BME280;62979;55.720;37.606;2023-02-01T01:54:08;98448.03;;;1.89;69.69
74561;BME280;62979;55.720;37.606;2023-02-01T01:56:43;98461.84;;;1.84;69.30
74561;BME280;62979;55.720;37.606;2023-02-01T01:59:16;98453.13;;;1.94;69.29
74561;BME280;62979;55.720;37.606;2023-02-01T02:01:45;98456.56;;;1.96;69.25
74561;BME280;62979;55.720;37.606;2023-02-01T02:04:12;98454.84;;;1.95;69.29
74561;BME280;62979;55.720;37.606;2023-02-01T02:06:45;98454.91;;;1.89;69.55
74561;BME280;62979;55.720;37.606;2023-02-01T02:09:17;98453.13;;;1.94;69.69
74561;BME280;62979;55.720;37.606;2023-02-01T02:11:44;98451.38;;;1.99;69.46
74561;BME280;62979;55.720;37.606;2023-02-01T02:14:13;98451.28;;;2.08;69.46
74561;BME280;62979;55.720;37.606;2023-02-01T02:17:11;98455.63;;;2.03;69.44
74561;BME280;62979;55.720;37.606;2023-02-01T02:23:50;98456.56;;;1.96;69.16
74561;BME280;62979;55.720;37.606;2023-02-01T02:26:50;98464.38;;;1.88;68.98
74561;BME280;62979;55.720;37.606;2023-02-01T02:29:42;98473.03;;;1.80;69.42
74561;BME280;62979;55.720;37.606;2023-02-01T02:32:47;98459.25;;;1.85;69.66
74561;BME280;62979;55.720;37.606;2023-02-01T02:35:38;98460.88;;;1.92;69.23
74561;BME280;62979;55.720;37.606;2023-02-01T02:38:17;98471.25;;;1.86;68.89
74561;BME280;62979;55.720;37.606;2023-02-01T02:40:57;98486.81;;;1.79;69.15
74561;BME280;62979;55.720;37.606;2023-02-01T02:43:37;98475.59;;;1.80;69.28
74561;BME280;62979;55.720;37.606;2023-02-01T02:46:32;98465.31;;;1.80;69.28
74561;BME280;62979;55.720;37.606;2023-02-01T02:49:24;98469.59;;;1.79;69.54
74561;BME280;62979;55.720;37.606;2023-02-01T02:52:05;98473.00;;;1.84;69.55
74561;BME280;62979;55.720;37.606;2023-02-01T02:54:57;98465.22;;;1.87;69.79
74561;BME280;62979;55.720;37.606;2023-02-01T02:57:30;98466.03;;;1.96;69.93
74561;BME280;62979;55.720;37.606;2023-02-01T03:00:19;98465.06;;;2.04;69.48
74561;BME280;62979;55.720;37.606;2023-02-01T03:03:08;98466.88;;;1.98;69.39
74561;BME280;62979;55.720;37.606;2023-02-01T03:05:53;98471.03;;;2.09;69.17
74561;BME280;62979;55.720;37.606;2023-02-01T03:08:22;98473.63;;;2.06;69.19
74561;BME280;62979;55.720;37.606;2023-02-01T03:10:54;98466.72;;;2.11;69.20
74561;BME280;62979;55.720;37.606;2023-02-01T03:13:31;98476.13;;;2.16;68.96
74561;BME280;62979;55.720;37.606;2023-02-01T03:16:07;98474.44;;;2.11;68.81
74561;BME280;62979;55.720;37.606;2023-02-01T03:18:46;98479.75;;;1.98;69.15
74561;BME280;62979;55.720;37.606;2023-02-01T03:21:21;98485.69;;;2.06;69.10
74561;BME280;62979;55.720;37.606;2023-02-01T03:23:57;98482.31;;;1.99;69.26
74561;BME280;62979;55.720;37.606;2023-02-01T03:26:31;98484.88;;;2.01;69.21
74561;BME280;62979;55.720;37.606;2023-02-01T03:29:08;98472.78;;;2.06;69.05
74561;BME280;62979;55.720;37.606;2023-02-01T03:31:40;98477.06;;;2.08;69.12
74561;BME280;62979;55.720;37.606;2023-02-01T03:34:07;98479.53;;;2.21;68.90
74561;BME280;62979;55.720;37.606;2023-02-01T03:36:38;98480.41;;;2.18;68.68
74561;BME280;62979;55.720;37.606;2023-02-01T03:39:15;98482.91;;;2.26;68.63
74561;BME280;62979;55.720;37.606;2023-02-01T03:41:50;98479.38;;;2.31;68.54
74561;BME280;62979;55.720;37.606;2023-02-01T03:44:23;98479.34;;;2.38;68.14
74561;BME280;62979;55.720;37.606;2023-02-01T03:46:56;98480.13;;;2.44;68.09
74561;BME280;62979;55.720;37.606;2023-02-01T03:49:29;98485.28;;;2.43;67.85
74561;BME280;62979;55.720;37.606;2023-02-01T03:52:00;98481.81;;;2.47;67.78
74561;BME280;62979;55.720;37.606;2023-02-01T03:54:30;98493.00;;;2.47;67.71
74561;BME280;62979;55.720;37.606;2023-02-01T03:57:01;98490.41;;;2.46;67.86
74561;BME280;62979;55.720;37.606;2023-02-01T03:59:38;98490.47;;;2.43;68.24
74561;BME280;62979;55.720;37.606;2023-02-01T04:02:06;98493.00;;;2.47;67.78
74561;BME280;62979;55.720;37.606;2023-02-01T04:04:34;98493.00;;;2.46;67.94
74561;BME280;62979;55.720;37.606;2023-02-01T04:07:01;98505.84;;;2.50;67.96
74561;BME280;62979;55.720;37.606;2023-02-01T04:09:30;98514.47;;;2.49;67.88
74561;BME280;62979;55.720;37.606;2023-02-01T04:11:57;98510.22;;;2.45;68.08
74561;BME280;62979;55.720;37.606;2023-02-01T04:14:23;98505.03;;;2.47;68.43
74561;BME280;62979;55.720;37.606;2023-02-01T04:16:50;98510.22;;;2.45;68.29
74561;BME280;62979;55.720;37.606;2023-02-01T04:19:18;98515.38;;;2.47;68.16
74561;BME280;62979;55.720;37.606;2023-02-01T04:21:44;98509.34;;;2.45;68.34
74561;BME280;62979;55.720;37.606;2023-02-01T04:24:11;98521.41;;;2.44;68.33
74561;BME280;62979;55.720;37.606;2023-02-01T04:26:39;98520.50;;;2.48;68.23
74561;BME280;62979;55.720;37.606;2023-02-01T04:29:08;98517.06;;;2.48;68.10
74561;BME280;62979;55.720;37.606;2023-02-01T04:31:35;98531.72;;;2.44;68.15
74561;BME280;62979;55.720;37.606;2023-02-01T04:34:02;98498.28;;;2.33;68.23
74561;BME280;62979;55.720;37.606;2023-02-01T04:36:29;98509.31;;;2.49;68.07
74561;BME280;62979;55.720;37.606;2023-02-01T04:38:56;98524.75;;;2.52;68.00
74561;BME280;62979;55.720;37.606;2023-02-01T04:41:23;98529.91;;;2.52;68.11
74561;BME280;62979;55.720;37.606;2023-02-01T04:43:51;98537.75;;;2.45;67.79
74561;BME280;62979;55.720;37.606;2023-02-01T04:46:18;98533.50;;;2.39;67.88
74561;BME280;62979;55.720;37.606;2023-02-01T04:48:46;98533.53;;;2.36;67.77
74561;BME280;62979;55.720;37.606;2023-02-01T04:51:13;98536.00;;;2.47;68.02
74561;BME280;62979;55.720;37.606;2023-02-01T04:53:41;98539.38;;;2.50;67.92
74561;BME280;62979;55.720;37.606;2023-02-01T04:56:08;98539.34;;;2.55;68.26
74561;BME280;62979;55.720;37.606;2023-02-01T04:58:35;98536.72;;;2.60;68.30
74561;BME280;62979;55.720;37.606;2023-02-01T05:01:03;98544.38;;;2.69;68.22
74561;BME280;62979;55.720;37.606;2023-02-01T05:03:31;98542.53;;;2.75;67.83
74561;BME280;62979;55.720;37.606;2023-02-01T05:05:59;98540.84;;;2.73;67.38
74561;BME280;62979;55.720;37.606;2023-02-01T05:08:26;98550.31;;;2.74;67.20
74561;BME280;62979;55.720;37.606;2023-02-01T05:10:54;98549.44;;;2.78;67.67
74561;BME280;62979;55.720;37.606;2023-02-01T05:13:21;98560.59;;;2.78;67.38
74561;BME280;62979;55.720;37.606;2023-02-01T05:16:18;98557.19;;;2.78;67.07
74561;BME280;62979;55.720;37.606;2023-02-01T05:18:45;98560.56;;;2.83;67.41
74561;BME280;62979;55.720;37.606;2023-02-01T05:21:12;98560.50;;;2.86;67.04
74561;BME280;62979;55.720;37.606;2023-02-01T05:23:39;98561.41;;;2.82;66.88
74561;BME280;62979;55.720;37.606;2023-02-01T05:26:20;98563.19;;;2.75;67.20
74561;BME280;62979;55.720;37.606;2023-02-01T05:28:46;98564.97;;;2.70;67.04
74561;BME280;62979;55.720;37.606;2023-02-01T05:31:13;98577.88;;;2.72;67.48
74561;BME280;62979;55.720;37.606;2023-02-01T05:33:42;98560.66;;;2.72;67.20
74561;BME280;62979;55.720;37.606;2023-02-01T05:36:09;98564.19;;;2.67;67.19
74561;BME280;62979;55.720;37.606;2023-02-01T05:38:35;98559.88;;;2.66;67.36
74561;BME280;62979;55.720;37.606;2023-02-01T05:41:02;98574.53;;;2.62;67.19
74561;BME280;62979;55.720;37.606;2023-02-01T05:43:29;98572.88;;;2.56;67.21
74561;BME280;62979;55.720;37.606;2023-02-01T05:45:56;98574.63;;;2.54;67.50
74561;BME280;62979;55.720;37.606;2023-02-01T05:48:23;98574.72;;;2.47;67.41
74561;BME280;62979;55.720;37.606;2023-02-01T05:50:52;98571.31;;;2.42;67.72
74561;BME280;62979;55.720;37.606;2023-02-01T05:53:19;98566.09;;;2.46;67.84
74561;BME280;62979;55.720;37.606;2023-02-01T05:55:46;98573.81;;;2.49;67.93
74561;BME280;62979;55.720;37.606;2023-02-01T05:58:13;98572.22;;;2.38;67.87
74561;BME280;62979;55.720;37.606;2023-02-01T06:00:40;98569.63;;;2.39;67.55
74561;BME280;62979;55.720;37.606;2023-02-01T06:03:07;98574.78;;;2.39;67.61
74561;BME280;62979;55.720;37.606;2023-02-01T06:05:34;98579.09;;;2.35;68.07
74561;BME280;62979;55.720;37.606;2023-02-01T06:08:03;98585.91;;;2.43;68.09
74561;BME280;62979;55.720;37.606;2023-02-01T06:10:32;98583.34;;;2.44;67.94
74561;BME280;62979;55.720;37.606;2023-02-01T06:12:59;98579.03;;;2.43;67.91
74561;BME280;62979;55.720;37.606;2023-02-01T06:15:28;98598.69;;;2.56;67.68
74561;BME280;62979;55.720;37.606;2023-02-01T06:17:55;98585.88;;;2.47;67.63
74561;BME280;62979;55.720;37.606;2023-02-01T06:20:22;98588.50;;;2.41;67.85
74561;BME280;62979;55.720;37.606;2023-02-01T06:22:49;98598.81;;;2.41;68.06
74561;BME280;62979;55.720;37.606;2023-02-01T06:25:19;98597.09;;;2.43;68.12
74561;BME280;62979;55.720;37.606;2023-02-01T06:27:46;98598.94;;;2.29;68.24
74561;BME280;62979;55.720;37.606;2023-02-01T06:30:13;98604.88;;;2.39;68.38
74561;BME280;62979;55.720;37.606;2023-02-01T06:32:41;98595.47;;;2.34;68.07
74561;BME280;62979;55.720;37.606;2023-02-01T06:35:09;98603.16;;;2.38;67.91
74561;BME280;62979;55.720;37.606;2023-02-01T06:37:41;98596.25;;;2.43;68.13
74561;BME280;62979;55.720;37.606;2023-02-01T06:40:09;98598.91;;;2.35;67.95
74561;BME280;62979;55.720;37.606;2023-02-01T06:42:38;98598.94;;;2.30;68.10
74561;BME280;62979;55.720;37.606;2023-02-01T06:45:06;98604.09;;;2.29;67.96
74561;BME280;62979;55.720;37.606;2023-02-01T06:47:34;98604.13;;;2.27;68.01
74561;BME280;62979;55.720;37.606;2023-02-01T06:50:01;98598.97;;;2.26;68.08
74561;BME280;62979;55.720;37.606;2023-02-01T06:52:28;98606.72;;;2.24;67.90
74561;BME280;62979;55.720;37.606;2023-02-01T06:54:54;98605.09;;;2.16;68.22
74561;BME280;62979;55.720;37.606;2023-02-01T06:57:21;98610.25;;;2.17;68.33
74561;BME280;62979;55.720;37.606;2023-02-01T06:59:49;98604.28;;;2.10;68.28
74561;BME280;62979;55.720;37.606;2023-02-01T07:02:16;98605.13;;;2.11;68.43
74561;BME280;62979;55.720;37.606;2023-02-01T07:04:43;98610.28;;;2.11;68.34
74561;BME280;62979;55.720;37.606;2023-02-01T07:07:10;98615.41;;;2.14;68.14
74561;BME280;62979;55.720;37.606;2023-02-01T07:09:37;98599.13;;;2.10;68.04
74561;BME280;62979;55.720;37.606;2023-02-01T07:12:04;98623.09;;;2.19;67.99
74561;BME280;62979;55.720;37.606;2023-02-01T07:14:32;98613.63;;;2.21;67.75
74561;BME280;62979;55.720;37.606;2023-02-01T07:17:00;98621.41;;;2.14;67.77
74561;BME280;62979;55.720;37.606;2023-02-01T07:19:27;98636.91;;;2.11;67.85
74561;BME280;62979;55.720;37.606;2023-02-01T07:21:54;98616.28;;;2.11;67.70
74561;BME280;62979;55.720;37.606;2023-02-01T07:24:21;98623.19;;;2.06;67.89
74561;BME280;62979;55.720;37.606;2023-02-01T07:26:48;98620.66;;;2.02;67.78
74561;BME280;62979;55.720;37.606;2023-02-01T07:29:16;98630.09;;;2.07;67.66
74561;BME280;62979;55.720;37.606;2023-02-01T07:31:43;98629.25;;;2.02;67.59
74561;BME280;62979;55.720;37.606;2023-02-01T07:34:12;98642.13;;;2.05;67.96
74561;BME280;62979;55.720;37.606;2023-02-01T07:36:39;98642.91;;;2.15;68.34
74561;BME280;62979;55.720;37.606;2023-02-01T07:39:07;98640.41;;;2.07;67.51
74561;BME280;62979;55.720;37.606;2023-02-01T07:41:34;98641.28;;;2.02;67.65
74561;BME280;62979;55.720;37.606;2023-02-01T07:44:01;98625.91;;;1.89;67.95
74561;BME280;62979;55.720;37.606;2023-02-01T07:46:28;98637.84;;;2.01;67.60
74561;BME280;62979;55.720;37.606;2023-02-01T07:48:55;98642.91;;;2.13;67.55
74561;BME280;62979;55.720;37.606;2023-02-01T07:51:23;98636.06;;;2.12;67.46
74561;BME280;62979;55.720;37.606;2023-02-01T07:53:50;98642.91;;;2.12;67.23
74561;BME280;62979;55.720;37.606;2023-02-01T07:56:18;98634.31;;;2.14;67.12
74561;BME280;62979;55.720;37.606;2023-02-01T07:58:48;98623.16;;;2.12;67.20
74561;BME280;62979;55.720;37.606;2023-02-01T08:01:16;98635.09;;;2.26;67.06
74561;BME280;62979;55.720;37.606;2023-02-01T08:03:45;98630.75;;;2.31;66.93
74561;BME280;62979;55.720;37.606;2023-02-01T08:06:12;98633.31;;;2.31;66.72
74561;BME280;62979;55.720;37.606;2023-02-01T08:08:41;98640.22;;;2.30;66.61
74561;BME280;62979;55.720;37.606;2023-02-01T08:11:10;98636.78;;;2.28;66.67
74561;BME280;62979;55.720;37.606;2023-02-01T08:13:37;98629.91;;;2.29;66.54
74561;BME280;62979;55.720;37.606;2023-02-01T08:16:06;98628.16;;;2.31;66.66
74561;BME280;62979;55.720;37.606;2023-02-01T08:18:35;98622.13;;;2.33;66.48
74561;BME280;62979;55.720;37.606;2023-02-01T08:21:04;98623.91;;;2.27;66.48
74561;BME280;62979;55.720;37.606;2023-02-01T08:23:32;98634.22;;;2.24;66.69
74561;BME280;62979;55.720;37.606;2023-02-01T08:26:09;98634.28;;;2.22;66.40
74561;BME280;62979;55.720;37.606;2023-02-01T08:28:38;98636.81;;;2.24;66.48
74561;BME280;62979;55.720;37.606;2023-02-01T08:31:08;98636.75;;;2.33;66.49
74561;BME280;62979;55.720;37.606;2023-02-01T08:33:41;98628.09;;;2.39;66.22
74561;BME280;62979;55.720;37.606;2023-02-01T08:36:10;98630.66;;;2.42;65.73
74561;BME280;62979;55.720;37.606;2023-02-01T08:38:38;98631.44;;;2.48;65.54
74561;BME280;62979;55.720;37.606;2023-02-01T08:41:09;98629.72;;;2.50;65.64
74561;BME280;62979;55.720;37.606;2023-02-01T08:43:37;98633.91;;;2.62;65.42
74561;BME280;62979;55.720;37.606;2023-02-01T08:46:04;98612.44;;;2.59;65.06
74561;BME280;62979;55.720;37.606;2023-02-01T08:48:32;98626.97;;;2.69;64.60
74561;BME280;62979;55.720;37.606;2023-02-01T08:51:01;98630.41;;;2.71;64.45
74561;BME280;62979;55.720;37.606;2023-02-01T08:53:29;98625.22;;;2.69;63.99
74561;BME280;62979;55.720;37.606;2023-02-01T08:55:56;98621.72;;;2.78;63.93
74561;BME280;62979;55.720;37.606;2023-02-01T08:58:24;98620.75;;;2.85;63.86
74561;BME280;62979;55.720;37.606;2023-02-01T09:00:51;98618.16;;;2.85;63.89
74561;BME280;62979;55.720;37.606;2023-02-01T09:03:18;98617.22;;;2.94;64.09
74561;BME280;62979;55.720;37.606;2023-02-01T09:05:45;98611.03;;;3.07;63.94
74561;BME280;62979;55.720;37.606;2023-02-01T09:08:13;98623.88;;;3.15;63.22
74561;BME280;62979;55.720;37.606;2023-02-01T09:10:40;98618.72;;;3.12;63.25
74561;BME280;62979;55.720;37.606;2023-02-01T09:13:08;98619.63;;;3.09;63.09
74561;BME280;62979;55.720;37.606;2023-02-01T09:15:36;98624.97;;;2.95;62.93
74561;BME280;62979;55.720;37.606;2023-02-01T09:18:03;98606.22;;;2.75;63.94
74561;BME280;62979;55.720;37.606;2023-02-01T09:20:30;98617.28;;;2.88;63.84
74561;BME280;62979;55.720;37.606;2023-02-01T09:22:57;98609.47;;;2.94;63.97
74561;BME280;62979;55.720;37.606;2023-02-01T09:25:25;98606.84;;;2.98;63.85
74561;BME280;62979;55.720;37.606;2023-02-01T09:27:52;98621.44;;;3.03;63.95
74561;BME280;62979;55.720;37.606;2023-02-01T09:30:19;98606.06;;;2.93;64.02
74561;BME280;62979;55.720;37.606;2023-02-01T09:32:47;98612.94;;;2.91;64.24
74561;BME280;62979;55.720;37.606;2023-02-01T09:35:14;98603.56;;;2.84;64.31
74561;BME280;62979;55.720;37.606;2023-02-01T09:37:41;98609.69;;;2.74;64.59
74561;BME280;62979;55.720;37.606;2023-02-01T09:40:12;98607.97;;;2.73;64.88
74561;BME280;62979;55.720;37.606;2023-02-01T09:42:57;98610.50;;;2.77;64.76
74561;BME280;62979;55.720;37.606;2023-02-01T09:45:38;98611.34;;;2.81;64.82
74561;BME280;62979;55.720;37.606;2023-02-01T09:48:15;98602.72;;;2.82;64.60
74561;BME280;62979;55.720;37.606;2023-02-01T09:50:48;98606.94;;;2.89;64.25
74561;BME280;62979;55.720;37.606;2023-02-01T09:53:22;98611.25;;;2.89;64.21
74561;BME280;62979;55.720;37.606;2023-02-01T09:55:55;98595.81;;;2.83;64.16
74561;BME280;62979;55.720;37.606;2023-02-01T09:58:32;98594.88;;;2.91;64.28
74561;BME280;62979;55.720;37.606;2023-02-01T10:01:08;98600.94;;;2.90;64.07
74561;BME280;62979;55.720;37.606;2023-02-01T10:03:42;98602.72;;;2.84;64.38
74561;BME280;62979;55.720;37.606;2023-02-01T10:06:27;98608.72;;;2.86;64.16
74561;BME280;62979;55.720;37.606;2023-02-01T10:09:17;98601.78;;;2.89;64.09
74561;BME280;62979;55.720;37.606;2023-02-01T10:12:33;98605.22;;;2.91;64.38
74561;BME280;62979;55.720;37.606;2023-02-01T10:15:35;98592.38;;;2.84;64.56
74561;BME280;62979;55.720;37.606;2023-02-01T10:18:35;98594.94;;;2.85;64.54
74561;BME280;62979;55.720;37.606;2023-02-01T10:21:22;98595.94;;;2.70;65.15
74561;BME280;62979;55.720;37.606;2023-02-01T10:24:17;98592.47;;;2.76;65.89
74561;BME280;62979;55.720;37.606;2023-02-01T10:26:57;98591.59;;;2.75;66.01
74561;BME280;62979;55.720;37.606;2023-02-01T10:29:34;98589.06;;;2.74;66.45
74561;BME280;62979;55.720;37.606;2023-02-01T10:32:11;98598.47;;;2.78;66.85
74561;BME280;62979;55.720;37.606;2023-02-01T10:34:42;98590.84;;;2.66;66.69
74561;BME280;62979;55.720;37.606;2023-02-01T10:37:20;98596.00;;;2.66;67.17
74561;BME280;62979;55.720;37.606;2023-02-01T10:39:54;98595.19;;;2.62;66.99
74561;BME280;62979;55.720;37.606;2023-02-01T10:42:25;98588.41;;;2.50;67.25
74561;BME280;62979;55.720;37.606;2023-02-01T10:44:55;98598.66;;;2.60;67.61
74561;BME280;62979;55.720;37.606;2023-02-01T10:47:25;98585.88;;;2.49;67.60
74561;BME280;62979;55.720;37.606;2023-02-01T10:49:58;98600.47;;;2.51;68.10
74561;BME280;62979;55.720;37.606;2023-02-01T10:52:39;98589.31;;;2.49;68.57
74561;BME280;62979;55.720;37.606;2023-02-01T10:55:30;98589.25;;;2.52;68.27
74561;BME280;62979;55.720;37.606;2023-02-01T10:58:01;98598.75;;;2.50;68.82
74561;BME280;62979;55.720;37.606;2023-02-01T11:00:39;98602.13;;;2.55;68.76
74561;BME280;62979;55.720;37.606;2023-02-01T11:03:21;98573.81;;;2.49;68.21
74561;BME280;62979;55.720;37.606;2023-02-01T11:06:03;98588.25;;;2.66;67.68
74561;BME280;62979;55.720;37.606;2023-02-01T11:08:47;98599.47;;;2.65;67.03
74561;BME280;62979;55.720;37.606;2023-02-01T11:11:16;98596.88;;;2.63;66.27
74561;BME280;62979;55.720;37.606;2023-02-01T11:13:43;98588.34;;;2.58;66.23
74561;BME280;62979;55.720;37.606;2023-02-01T11:16:14;98587.53;;;2.54;66.43
74561;BME280;62979;55.720;37.606;2023-02-01T11:18:41;98596.97;;;2.55;66.31
74561;BME280;62979;55.720;37.606;2023-02-01T11:21:10;98599.63;;;2.46;65.91
74561;BME280;62979;55.720;37.606;2023-02-01T11:23:41;98597.09;;;2.45;66.16
74561;BME280;62979;55.720;37.606;2023-02-01T11:26:13;98597.94;;;2.45;66.30
74561;BME280;62979;55.720;37.606;2023-02-01T11:28:52;98593.66;;;2.44;66.40
74561;BME280;62979;55.720;37.606;2023-02-01T11:31:24;98591.88;;;2.48;66.48
74561;BME280;62979;55.720;37.606;2023-02-01T11:33:54;98593.66;;;2.41;66.07
74561;BME280;62979;55.720;37.606;2023-02-01T11:36:30;98590.19;;;2.45;66.06
74561;BME280;62979;55.720;37.606;2023-02-01T11:39:24;98602.31;;;2.34;66.06
74561;BME280;62979;55.720;37.606;2023-02-01T11:42:00;98600.50;;;2.45;66.05
74561;BME280;62979;55.720;37.606;2023-02-01T11:44:33;98600.41;;;2.57;65.90
74561;BME280;62979;55.720;37.606;2023-02-01T11:47:24;98611.59;;;2.55;65.62
74561;BME280;62979;55.720;37.606;2023-02-01T11:49:53;98610.81;;;2.48;65.67
74561;BME280;62979;55.720;37.606;2023-02-01T11:52:41;98608.22;;;2.48;65.35
74561;BME280;62979;55.720;37.606;2023-02-01T11:55:34;98601.31;;;2.52;65.35
74561;BME280;62979;55.720;37.606;2023-02-01T11:58:35;98614.19;;;2.56;65.13
74561;BME280;62979;55.720;37.606;2023-02-01T12:01:30;98605.63;;;2.48;65.04
74561;BME280;62979;55.720;37.606;2023-02-01T12:04:32;98616.06;;;2.39;64.62
74561;BME280;62979;55.720;37.606;2023-02-01T12:07:16;98616.06;;;2.39;65.04
74561;BME280;62979;55.720;37.606;2023-02-01T12:09:58;98624.59;;;2.47;64.83
74561;BME280;62979;55.720;37.606;2023-02-01T12:12:39;98619.38;;;2.50;64.99
74561;BME280;62979;55.720;37.606;2023-02-01T12:15:33;98615.91;;;2.54;64.88
74561;BME280;62979;55.720;37.606;2023-02-01T12:18:38;98602.22;;;2.48;64.51
74561;BME280;62979;55.720;37.606;2023-02-01T12:21:40;98620.16;;;2.62;64.20
74561;BME280;62979;55.720;37.606;2023-02-01T12:24:48;98624.50;;;2.55;64.03
74561;BME280;62979;55.720;37.606;2023-02-01T12:28:02;98627.00;;;2.64;64.21
74561;BME280;62979;55.720;37.606;2023-02-01T12:31:00;98629.72;;;2.50;63.97
74561;BME280;62979;55.720;37.606;2023-02-01T12:33:47;98628.81;;;2.53;64.06
74561;BME280;62979;55.720;37.606;2023-02-01T12:36:33;98634.81;;;2.56;64.01
74561;BME280;62979;55.720;37.606;2023-02-01T12:39:18;98634.81;;;2.56;63.63
74561;BME280;62979;55.720;37.606;2023-02-01T12:41:55;98631.44;;;2.51;63.91
74561;BME280;62979;55.720;37.606;2023-02-01T12:44:35;98634.81;;;2.56;63.96
74561;BME280;62979;55.720;37.606;2023-02-01T12:47:15;98634.81;;;2.56;63.71
74561;BME280;62979;55.720;37.606;2023-02-01T12:49:55;98636.56;;;2.54;63.58
74561;BME280;62979;55.720;37.606;2023-02-01T12:52:37;98630.56;;;2.54;63.12
74561;BME280;62979;55.720;37.606;2023-02-01T12:55:17;98628.84;;;2.51;62.78
74561;BME280;62979;55.720;37.606;2023-02-01T12:57:50;98630.50;;;2.59;62.70
74561;BME280;62979;55.720;37.606;2023-02-01T13:00:29;98637.44;;;2.52;62.08
74561;BME280;62979;55.720;37.606;2023-02-01T13:03:02;98637.41;;;2.56;62.36
74561;BME280;62979;55.720;37.606;2023-02-01T13:05:46;98636.50;;;2.62;62.14
74561;BME280;62979;55.720;37.606;2023-02-01T13:08:23;98628.81;;;2.54;62.23
74561;BME280;62979;55.720;37.606;2023-02-01T13:10:57;98640.00;;;2.53;62.41
74561;BME280;62979;55.720;37.606;2023-02-01T13:13:44;98633.06;;;2.62;62.33
74561;BME280;62979;55.720;37.606;2023-02-01T13:16:21;98636.53;;;2.57;62.40
74561;BME280;62979;55.720;37.606;2023-02-01T13:19:01;98638.28;;;2.52;62.56
74561;BME280;62979;55.720;37.606;2023-02-01T13:21:36;98636.50;;;2.62;62.14
74561;BME280;62979;55.720;37.606;2023-02-01T13:24:21;98634.72;;;2.66;62.60
74561;BME280;62979;55.720;37.606;2023-02-01T13:26:55;98636.44;;;2.65;61.95
74561;BME280;62979;55.720;37.606;2023-02-01T13:29:23;98638.22;;;2.62;61.88
74561;BME280;62979;55.720;37.606;2023-02-01T13:32:13;98646.84;;;2.56;62.05
74561;BME280;62979;55.720;37.606;2023-02-01T13:35:24;98643.50;;;2.49;61.89